100LL.CA
Aviation Fuel Pricing for Canadians
Please upgrade your browser - Tested with IE9, FireFox, Chrome, Safari

Fuel Airports Other Help
Prices Economy Info List METAR/TAF Kneeboard Help

Reference Airport: WHITECOURT, AB
N 54 08 38  W 115 47 12
Provinces to show:

CYZU WHITECOURT, AB
WEATHER
METARCYZU 230300Z 28007KT 15SM BKN220 06/M09 A2989 RMK CI6 SLP154
OTHER SITES

FlightAware

FltPlan

Google Maps

SkyVector
FUEL
FBO 100LL
member
100LL
public
JETA MOGAS
Rotaiva (2022-06-13)2.0301.610
Canada Flight Supplement - CYZU
(opens in new tab/window)


Please Send Updates!

Desktop Version ]  [ Mobile Version ]  [ Disclaimer ]